Time;durP1;ratioP1;P1;durP2;ratioP2;P2;SDS_P1;SDS_P2;PMS_P1;PMS_P2;Temp;Humidity;BMP_temperature;BMP_pressure;BME280_temperature;BME280_humidity;BME280_pressure;Samples;Min_cycle;Max_cycle;Signal;HPM_P1;HPM_P2
2021/05/25 00:01:44;;;;;;;7.47;3.60;;;;;;;14.93;55.97;99935.61;126567;1099;103078;-83
2021/05/25 00:04:33;;;;;;;5.93;3.33;;;;;;;14.91;56.31;99940.11;126649;1098;103145;-84
2021/05/25 00:07:21;;;;;;;7.90;3.30;;;;;;;14.91;55.98;99929.60;126604;1098;101112;-83
2021/05/25 00:10:12;;;;;;;5.03;3.23;;;;;;;14.91;55.58;99921.72;126656;1098;103011;-83
2021/05/25 00:13:00;;;;;;;8.67;3.30;;;;;;;14.91;56.44;99926.98;126672;1100;103115;-83
2021/05/25 00:15:53;;;;;;;6.17;3.47;;;;;;;14.91;56.39;99924.35;126548;1098;102929;-82
2021/05/25 00:18:42;;;;;;;5.07;3.33;;;;;;;14.91;56.56;99916.47;126556;1101;102955;-82
2021/05/25 00:21:29;;;;;;;6.23;3.17;;;;;;;14.92;56.35;99901.56;126791;1098;102989;-83
2021/05/25 00:24:18;;;;;;;6.63;3.50;;;;;;;14.91;56.89;99916.47;126537;1093;101209;-83
2021/05/25 00:27:07;;;;;;;10.93;3.67;;;;;;;14.91;56.78;99905.97;126669;1099;102985;-82
2021/05/25 00:29:55;;;;;;;5.67;3.43;;;;;;;14.92;56.73;99905.03;126619;1101;103069;-82
2021/05/25 00:32:45;;;;;;;5.17;3.80;;;;;;;14.93;56.54;99906.73;126585;1101;103008;-82
2021/05/25 00:35:41;;;;;;;7.05;3.70;;;;;;;14.93;56.69;99905.88;126582;1098;102923;-85
2021/05/25 00:38:32;;;;;;;4.30;3.43;;;;;;;14.93;56.35;99901.48;126608;1100;102924;-84
2021/05/25 00:41:22;;;;;;;6.87;3.70;;;;;;;14.92;57.09;99907.66;126588;1098;102953;-84
2021/05/25 00:44:10;;;;;;;5.95;3.40;;;;;;;14.91;57.07;99905.97;126607;1099;103142;-84
2021/05/25 00:46:58;;;;;;;5.23;3.60;;;;;;;14.90;56.86;99914.78;126501;1099;103033;-84
2021/05/25 00:49:46;;;;;;;5.87;3.80;;;;;;;14.89;56.88;99917.46;126650;1098;103131;-84
2021/05/25 00:52:35;;;;;;;5.75;3.30;;;;;;;14.87;57.09;99914.92;126568;1093;103005;-84
2021/05/25 00:55:45;;;;;;;5.80;3.93;;;;;;;14.85;57.45;99911.54;126656;1100;103377;-82
2021/05/25 00:58:34;;;;;;;;;;;;;;;14.84;57.43;99909.84;126555;1098;102937;-82
2021/05/25 01:01:22;;;;;;;4.53;3.57;;;;;;;14.83;57.23;99908.16;126529;1098;102388;-84
2021/05/25 01:04:10;;;;;;;5.83;3.50;;;;;;;14.83;57.63;99905.53;126688;1093;103066;-82
2021/05/25 01:07:00;;;;;;;5.77;3.60;;;;;;;14.82;57.47;99903.84;126592;1098;102981;-84
2021/05/25 01:09:49;;;;;;;5.40;3.60;;;;;;;14.81;57.22;99892.48;126592;1100;103426;-84
2021/05/25 01:12:59;;;;;;;3.77;3.27;;;;;;;14.81;57.47;99899.52;126567;1098;102952;-84
2021/05/25 01:15:50;;;;;;;4.33;3.27;;;;;;;14.79;57.48;99902.23;126568;1093;103483;-82
2021/05/25 01:18:38;;;;;;;6.63;3.37;;;;;;;14.78;57.56;99903.16;126601;1098;102931;-85
2021/05/25 01:21:28;;;;;;;5.87;3.67;;;;;;;14.77;57.92;99898.84;126701;1098;103065;-82
2021/05/25 01:24:30;;;;;;;4.80;3.57;;;;;;;14.75;57.80;99889.36;126612;1098;103399;-84
2021/05/25 01:27:17;;;;;;;7.57;3.67;;;;;;;14.72;58.70;99892.13;126605;1098;102950;-84
2021/05/25 01:30:10;;;;;;;10.23;3.97;;;;;;;14.67;58.41;99883.67;126520;1093;102786;-84
2021/05/25 01:32:59;;;;;;;6.87;3.47;;;;;;;14.63;58.76;99867.25;126618;1100;103005;-82
2021/05/25 01:35:48;;;;;;;5.17;3.57;;;;;;;14.57;58.93;99851.84;126634;1098;102944;-82
2021/05/25 01:38:37;;;;;;;5.23;3.77;;;;;;;14.53;59.95;99829.30;126620;1098;102931;-82
2021/05/25 01:41:26;;;;;;;6.63;4.07;;;;;;;14.48;60.24;99815.60;126646;1098;102911;-84
2021/05/25 01:44:14;;;;;;;4.87;3.90;;;;;;;14.43;60.34;99805.36;126580;1098;102939;-84
2021/05/25 01:47:03;;;;;;;6.37;3.77;;;;;;;14.40;60.13;99810.75;126589;1098;102950;-84
2021/05/25 01:49:51;;;;;;;9.37;4.07;;;;;;;14.36;60.29;99811.86;126504;1101;103065;-85
2021/05/25 01:53:02;;;;;;;6.93;4.13;;;;;;;14.33;60.72;99819.87;126576;1101;103014;-85
2021/05/25 01:56:18;;;;;;;6.10;3.43;;;;;;;14.29;60.92;99799.14;126544;1098;103110;-85
2021/05/25 01:59:06;;;;;;;7.20;4.20;;;;;;;14.28;61.46;99789.58;126594;1098;102918;-84
2021/05/25 02:01:54;;;;;;;9.77;4.10;;;;;;;14.24;61.25;99788.91;126478;1098;103052;-84
2021/05/25 02:04:43;;;;;;;6.97;4.00;;;;;;;14.20;61.46;99790.86;126596;1098;103390;-83
2021/05/25 02:07:34;;;;;;;6.03;3.80;;;;;;;14.16;61.84;99801.57;126568;1099;102943;-84
2021/05/25 02:10:32;;;;;;;6.70;4.40;;;;;;;14.11;62.42;99809.70;126567;1098;102927;-84
2021/05/25 02:13:37;;;;;;;6.93;4.23;;;;;;;14.04;63.04;99804.88;126552;1098;103126;-84
2021/05/25 02:16:41;;;;;;;6.27;4.20;;;;;;;13.95;63.18;99813.21;126448;1099;102969;-84
2021/05/25 02:19:29;;;;;;;6.30;4.07;;;;;;;13.85;63.86;99813.71;126659;1098;102824;-84
2021/05/25 02:22:18;;;;;;;7.27;4.40;;;;;;;13.77;65.18;99831.59;126556;1100;101761;-84
2021/05/25 02:25:09;;;;;;;6.87;3.80;;;;;;;13.69;65.42;99825.91;126571;1101;102870;-84
2021/05/25 02:28:00;;;;;;;6.07;4.80;;;;;;;13.58;66.16;99826.45;126556;1098;103432;-84
2021/05/25 02:30:49;;;;;;;5.47;4.33;;;;;;;13.51;67.65;99816.38;126607;1098;103087;-85
2021/05/25 02:33:38;;;;;;;5.73;4.47;;;;;;;13.40;68.39;99816.91;126639;1098;103067;-85
2021/05/25 02:36:27;;;;;;;10.67;5.37;;;;;;;13.28;69.59;99820.13;126591;1098;103253;-85
2021/05/25 02:39:34;;;;;;;7.03;5.03;;;;;;;13.14;68.61;99823.42;126631;1092;102939;-85
2021/05/25 02:42:42;;;;;;;6.00;4.93;;;;;;;12.97;70.02;99805.92;126592;1093;101889;-83
2021/05/25 02:46:12;;;;;;;8.00;5.45;;;;;;;12.81;71.72;99806.74;126644;1093;103090;-86
2021/05/25 02:49:47;;;;;;;7.75;5.60;;;;;;;12.63;72.29;99795.39;126793;1098;103728;-86
2021/05/25 02:53:36;;;;;;;7.28;5.28;;;;;;;12.50;72.33;99797.73;126767;1098;102949;-85
2021/05/25 02:56:44;;;;;;;7.67;5.57;;;;;;;12.40;73.94;99797.33;126648;1093;103046;-86
2021/05/25 03:00:22;;;;;;;6.80;5.40;;;;;;;12.29;73.95;99786.51;126704;1098;102940;-85
2021/05/25 03:03:32;;;;;;;7.90;6.13;;;;;;;12.24;75.10;99792.88;126808;1098;102933;-85
2021/05/25 03:06:45;;;;;;;7.20;5.37;;;;;;;12.18;75.02;99785.30;126628;1101;102936;-85
2021/05/25 03:09:54;;;;;;;7.43;5.90;;;;;;;12.12;77.21;99778.59;126741;1098;103097;-86
2021/05/25 03:13:37;;;;;;;7.20;5.80;;;;;;;12.07;76.47;99775.35;126680;1098;102923;-85
2021/05/25 03:17:27;;;;;;;6.85;5.83;;;;;;;12.03;76.58;99753.73;126919;1098;102962;-86
2021/05/25 03:20:49;;;;;;;7.40;5.87;;;;;;;12.02;77.22;99754.63;126845;1098;102928;-85
2021/05/25 03:23:42;;;;;;;9.73;6.17;;;;;;;12.01;77.78;99749.47;126752;1099;103112;-85
2021/05/25 03:26:52;;;;;;;8.70;7.37;;;;;;;12.03;77.80;99753.73;126725;1098;102905;-85
2021/05/25 03:30:00;;;;;;;7.90;6.70;;;;;;;12.03;77.26;99758.97;126561;1101;102978;-85
2021/05/25 03:33:08;;;;;;;;;;;;;;;12.05;78.19;99761.51;126903;1098;102967;-86
2021/05/25 03:36:17;;;;;;;7.43;6.63;;;;;;;12.06;77.25;99768.43;126688;1098;103011;-84
2021/05/25 03:39:25;;;;;;;11.40;7.23;;;;;;;12.06;77.89;99764.05;126619;1098;102757;-85
2021/05/25 03:42:23;;;;;;;;;;;;;;;12.08;78.61;99769.20;126747;1098;102950;-85
2021/05/25 03:45:48;;;;;;;7.65;6.55;;;;;;;12.07;78.88;99763.13;126743;1098;102936;-85
2021/05/25 03:48:56;;;;;;;8.30;7.20;;;;;;;12.09;77.99;99763.91;126617;1098;102931;-85
2021/05/25 03:51:48;;;;;;;9.03;6.90;;;;;;;12.10;78.86;99757.75;126671;1098;103053;-85
2021/05/25 03:54:41;;;;;;;7.00;6.30;;;;;;;12.10;78.36;99749.91;126625;1098;102931;-84
2021/05/25 04:00:18;;;;;;;8.73;6.37;;;;;;;12.13;78.46;99743.69;126651;1098;102943;-85
2021/05/25 04:03:06;;;;;;;8.60;6.30;;;;;;;12.14;78.52;99745.38;126618;1098;103103;-84
2021/05/25 04:05:55;;;;;;;8.37;6.33;;;;;;;12.16;78.92;99734.85;126611;1098;103326;-84
2021/05/25 04:08:45;;;;;;;7.67;6.30;;;;;;;12.17;78.60;99729.55;126566;1100;103001;-84
2021/05/25 04:11:35;;;;;;;8.30;6.20;;;;;;;12.20;78.20;99728.55;126681;1100;100562;-84
2021/05/25 04:14:34;;;;;;;7.60;6.37;;;;;;;12.22;78.45;99731.97;126569;1098;103029;-84
2021/05/25 04:17:24;;;;;;;7.97;6.37;;;;;;;12.26;78.99;99728.28;126614;1098;103025;-84
2021/05/25 04:20:23;;;;;;;8.43;6.40;;;;;;;12.30;78.53;99721.98;126512;1098;102979;-84
2021/05/25 04:23:22;;;;;;;7.93;6.63;;;;;;;12.34;79.58;99710.45;126539;1093;102948;-84
2021/05/25 04:26:10;;;;;;;8.90;6.90;;;;;;;12.39;79.51;99713.72;126619;1098;102998;-84
2021/05/25 04:29:18;;;;;;;9.17;6.93;;;;;;;12.40;79.96;99720.64;126660;1098;103088;-86
2021/05/25 04:32:08;;;;;;;9.07;6.67;;;;;;;12.40;80.48;99726.72;126545;1099;103036;-85
2021/05/25 04:34:56;;;;;;;8.57;6.47;;;;;;;12.41;80.21;99722.33;126592;1100;102953;-84
2021/05/25 04:37:51;;;;;;;8.70;7.17;;;;;;;12.41;80.29;99722.33;126638;1093;103030;-84
2021/05/25 04:40:44;;;;;;;8.63;6.90;;;;;;;12.43;79.83;99717.02;126610;1098;103088;-84
2021/05/25 04:43:34;;;;;;;8.43;6.73;;;;;;;12.45;80.59;99729.10;126649;1098;103001;-84
2021/05/25 04:46:22;;;;;;;7.60;6.90;;;;;;;12.46;79.79;99725.56;126530;1098;102995;-84
2021/05/25 04:49:11;;;;;;;9.40;7.30;;;;;;;12.48;80.42;99721.11;126607;1098;102804;-85
2021/05/25 04:52:00;;;;;;;11.90;7.10;;;;;;;12.48;79.94;99718.48;126638;1098;102952;-84
2021/05/25 04:54:49;;;;;;;10.23;7.40;;;;;;;12.49;79.58;99714.95;126642;1099;102969;-84
2021/05/25 04:57:39;;;;;;;10.67;7.77;;;;;;;12.50;80.32;99727.11;126603;1099;101324;-84
2021/05/25 05:00:29;;;;;;;7.77;6.77;;;;;;;12.50;79.51;99706.18;126639;1098;103083;-84
2021/05/25 05:03:36;;;;;;;9.40;7.03;;;;;;;12.52;79.51;99717.41;126667;1098;103023;-84
2021/05/25 05:06:43;;;;;;;8.67;7.43;;;;;;;12.52;80.40;99735.72;126714;1098;103004;-84
2021/05/25 05:09:32;;;;;;;8.23;7.03;;;;;;;12.49;80.05;99735.88;126701;1098;102960;-84
2021/05/25 05:12:41;;;;;;;8.83;7.40;;;;;;;12.47;80.86;99737.72;126631;1093;102966;-84
2021/05/25 05:15:48;;;;;;;10.77;7.00;;;;;;;12.44;80.84;99743.11;126539;1100;102968;-84
2021/05/25 05:18:36;;;;;;;7.77;6.43;;;;;;;12.39;81.03;99748.56;126593;1098;102968;-85
2021/05/25 05:21:25;;;;;;;12.10;7.47;;;;;;;12.35;81.27;99743.52;126597;1098;103048;-84
2021/05/25 05:24:32;;;;;;;10.03;7.00;;;;;;;12.31;81.89;99750.67;126631;1093;103120;-84
2021/05/25 05:27:21;;;;;;;7.40;6.63;;;;;;;12.30;81.72;99750.75;126560;1100;102997;-84
2021/05/25 05:30:48;;;;;;;7.95;7.15;;;;;;;12.29;82.21;99751.67;126569;1098;102931;-84
2021/05/25 05:33:38;;;;;;;;;;;;;;;12.29;82.52;99751.67;126841;1098;103066;-85
2021/05/25 05:36:27;;;;;;;;;;;;;;;12.29;81.93;99749.91;126627;1099;102773;-85
2021/05/25 05:39:15;;;;;;;8.90;6.23;;;;;;;12.30;82.08;99748.13;126597;1098;103054;-84
2021/05/25 05:42:22;;;;;;;11.27;6.77;;;;;;;12.33;82.16;99745.37;126643;1101;103054;-84
2021/05/25 05:45:17;;;;;;;8.37;5.63;;;;;;;12.35;81.47;99735.68;126551;1098;101824;-85
2021/05/25 05:48:07;;;;;;;10.03;6.70;;;;;;;12.39;81.58;99739.87;126746;1098;103003;-85
2021/05/25 05:50:59;;;;;;;6.57;5.87;;;;;;;12.41;81.17;99743.25;126595;1099;102798;-85
2021/05/25 05:53:55;;;;;;;7.80;6.07;;;;;;;12.41;81.37;99743.25;126892;1098;103388;-84
2021/05/25 05:56:47;;;;;;;8.27;6.80;;;;;;;12.44;82.16;99735.26;126735;1099;102908;-84
2021/05/25 05:59:44;;;;;;;7.77;6.50;;;;;;;12.45;82.04;99742.18;126701;1098;102924;-84
2021/05/25 06:03:00;;;;;;;8.60;5.97;;;;;;;12.47;82.15;99739.48;126708;1100;103062;-85
2021/05/25 06:06:28;;;;;;;8.80;7.17;;;;;;;12.46;83.32;99737.80;126708;1098;103492;-87
2021/05/25 06:10:14;;;;;;;7.93;6.37;;;;;;;12.42;82.80;99731.88;126748;1093;103080;-85
2021/05/25 06:13:44;;;;;;;11.17;7.70;;;;;;;12.40;83.35;99726.72;126927;1098;100709;-88
2021/05/25 06:17:12;;;;;;;10.13;7.50;;;;;;;12.38;83.88;99730.30;126793;1098;102937;-86
2021/05/25 06:21:02;;;;;;;11.17;8.10;;;;;;;12.37;83.91;99734.69;126719;1098;102929;-86
2021/05/25 06:25:06;;;;;;;10.53;7.50;;;;;;;12.39;83.50;99732.02;126775;1098;103034;-87
2021/05/25 06:29:15;;;;;;;9.50;6.93;;;;;;;12.42;83.45;99734.48;126713;1101;103965;-87
2021/05/25 06:33:23;;;;;;;9.57;6.50;;;;;;;12.43;82.95;99736.18;126492;1101;102950;-86
2021/05/25 06:36:55;;;;;;;7.73;5.73;;;;;;;12.48;83.61;99721.11;126300;1101;103099;-85
2021/05/25 06:41:03;;;;;;;10.25;6.05;;;;;;;12.51;83.31;99718.34;126397;1096;103394;-85
2021/05/25 06:45:12;;;;;;;9.43;6.87;;;;;;;12.55;84.16;99714.64;126612;1101;102956;-85
2021/05/25 06:49:00;;;;;;;7.87;6.63;;;;;;;12.57;83.44;99711.98;126268;1101;103137;-86
2021/05/25 06:52:36;;;;;;;7.40;5.90;;;;;;;12.60;84.02;99717.91;126579;1101;103261;-86
2021/05/25 06:56:50;;;;;;;6.40;5.80;;;;;;;12.63;83.21;99704.67;126518;1096;102942;-85
2021/05/25 07:00:39;;;;;;;7.63;5.97;;;;;;;12.68;83.13;99715.75;126219;1104;102979;-85
2021/05/25 07:04:14;;;;;;;9.93;6.77;;;;;;;12.73;83.69;99709.44;126235;1104;103627;-85
2021/05/25 07:07:24;;;;;;;9.07;6.20;;;;;;;12.78;83.01;99718.77;126640;1101;102959;-84
2021/05/25 07:11:15;;;;;;;7.67;5.63;;;;;;;12.83;83.06;99700.22;126625;1101;103067;-85
2021/05/25 07:15:22;;;;;;;8.33;5.57;;;;;;;12.94;83.34;99704.00;126641;1101;102944;-84
2021/05/25 07:18:51;;;;;;;5.50;4.90;;;;;;;13.10;82.35;99706.66;126542;1101;103015;-86
2021/05/25 07:22:37;;;;;;;6.13;4.97;;;;;;;13.28;82.15;99705.78;126543;1101;103000;-86
2021/05/25 07:26:06;;;;;;;6.03;4.53;;;;;;;13.42;82.38;99702.41;126517;1101;101247;-86
2021/05/25 07:29:38;;;;;;;5.67;5.07;;;;;;;13.51;81.89;99701.95;126553;1101;103058;-87
2021/05/25 07:33:09;;;;;;;5.90;4.57;;;;;;;13.57;81.41;99701.61;126536;1093;101051;-84
2021/05/25 07:37:17;;;;;;;8.00;4.60;;;;;;;13.66;80.95;99718.64;126580;1101;102755;-86
2021/05/25 07:40:30;;;;;;;5.37;4.37;;;;;;;13.76;80.84;99703.25;126589;1093;102954;-86
2021/05/25 07:44:03;;;;;;;6.77;4.50;;;;;;;13.85;80.41;99705.39;126593;1100;103085;-85
2021/05/25 07:47:20;;;;;;;7.53;3.93;;;;;;;13.94;79.90;99704.03;126537;1101;103054;-86
2021/05/25 07:50:36;;;;;;;5.30;4.30;;;;;;;14.06;79.53;99700.75;126553;1101;103008;-86
2021/05/25 07:53:44;;;;;;;6.15;4.03;;;;;;;14.16;79.28;99700.14;126628;1101;102962;-84
2021/05/25 07:56:43;;;;;;;7.77;3.83;;;;;;;14.19;78.99;99689.50;126549;1101;102757;-84
2021/05/25 08:00:10;;;;;;;4.87;3.83;;;;;;;14.25;78.19;99693.55;126511;1096;103008;-84
2021/05/25 08:03:24;;;;;;;4.10;3.70;;;;;;;14.39;78.17;99683.13;126611;1096;103074;-85
2021/05/25 08:06:15;;;;;;;6.50;3.87;;;;;;;14.50;77.47;99682.53;126559;1101;102928;-86
2021/05/25 08:09:26;;;;;;;6.47;4.00;;;;;;;14.63;77.58;99682.69;126611;1101;102771;-84
2021/05/25 08:12:31;;;;;;;6.13;3.63;;;;;;;14.83;77.10;99666.62;126566;1094;102950;-84
2021/05/25 08:15:22;;;;;;;5.33;3.20;;;;;;;14.99;76.63;99664.78;126508;1101;103019;-85
2021/05/25 08:18:34;;;;;;;4.13;3.30;;;;;;;15.05;76.29;99684.56;126495;1101;102969;-83
2021/05/25 08:21:22;;;;;;;6.70;3.50;;;;;;;15.02;75.30;99680.34;126507;1101;103121;-84
2021/05/25 08:24:11;;;;;;;5.10;3.63;;;;;;;15.02;75.33;99672.47;126494;1101;102927;-84
2021/05/25 08:27:20;;;;;;;4.17;3.50;;;;;;;15.01;75.28;99673.41;126539;1101;102952;-84
2021/05/25 08:30:50;;;;;;;4.83;3.23;;;;;;;15.05;74.93;99685.41;126604;1101;102940;-84
2021/05/25 08:33:39;;;;;;;6.43;3.40;;;;;;;14.99;75.24;99687.56;126658;1101;102937;-84
2021/05/25 08:36:49;;;;;;;6.65;3.15;;;;;;;14.96;75.00;99666.75;126529;1093;103004;-77
2021/05/25 08:39:37;;;;;;;5.87;2.73;;;;;;;15.01;74.88;99669.94;126435;1101;102814;-84
2021/05/25 08:42:37;;;;;;;7.00;3.20;;;;;;;14.96;74.34;99674.63;126560;1094;101087;-82
2021/05/25 08:45:25;;;;;;;3.50;3.00;;;;;;;14.92;74.57;99683.63;126510;1101;102937;-83
2021/05/25 08:48:14;;;;;;;5.00;2.90;;;;;;;14.93;74.70;99682.69;126592;1101;103215;-83
2021/05/25 08:51:12;;;;;;;4.90;3.30;;;;;;;14.93;74.53;99680.06;126526;1101;103157;-83
2021/05/25 08:54:01;;;;;;;6.13;3.33;;;;;;;14.89;74.29;99676.75;126556;1101;101746;-83
2021/05/25 08:56:49;;;;;;;3.27;2.87;;;;;;;14.86;74.32;99687.44;126566;1093;102933;-83
2021/05/25 08:59:38;;;;;;;4.63;2.70;;;;;;;14.80;74.44;99680.77;126598;1101;103000;-83
2021/05/25 09:02:26;;;;;;;5.03;3.50;;;;;;;14.76;74.65;99674.02;126490;1101;103088;-83
2021/05/25 09:05:21;;;;;;;6.23;3.53;;;;;;;14.71;74.54;99672.57;126560;1101;103124;-83
2021/05/25 09:08:10;;;;;;;4.40;3.13;;;;;;;14.70;74.85;99674.36;126634;1101;102977;-83
2021/05/25 09:11:09;;;;;;;5.13;3.17;;;;;;;14.71;74.46;99680.45;126635;1101;103001;-83
2021/05/25 09:14:08;;;;;;;6.20;3.20;;;;;;;14.73;74.45;99689.11;126596;1101;102928;-83
2021/05/25 09:17:16;;;;;;;3.30;2.87;;;;;;;14.71;74.33;99694.41;126493;1101;102949;-83
2021/05/25 09:20:09;;;;;;;5.75;3.55;;;;;;;14.72;74.38;99697.89;126576;1101;101870;-83
2021/05/25 09:22:57;;;;;;;4.90;3.33;;;;;;;14.73;74.15;99710.95;126582;1101;101242;-83
2021/05/25 09:26:04;;;;;;;3.93;3.20;;;;;;;14.72;73.83;99711.89;126675;1101;102879;-83
2021/05/25 09:29:10;;;;;;;5.03;3.63;;;;;;;14.70;73.93;99716.35;126655;1101;101655;-83
2021/05/25 09:31:58;;;;;;;5.17;3.80;;;;;;;14.70;73.79;99702.38;126591;1101;103023;-83
2021/05/25 09:34:45;;;;;;;4.73;3.90;;;;;;;14.73;73.68;99710.11;126407;1096;102751;-83
2021/05/25 09:38:02;;;;;;;5.43;4.13;;;;;;;14.76;73.66;99702.05;126613;1101;103072;-83
2021/05/25 09:41:01;;;;;;;4.63;3.67;;;;;;;14.91;73.47;99703.78;126587;1101;101797;-83
2021/05/25 09:43:53;;;;;;;4.23;3.83;;;;;;;15.10;72.78;99712.27;126627;1101;103387;-83
2021/05/25 09:46:48;;;;;;;5.03;3.73;;;;;;;15.17;72.36;99701.39;126611;1101;103400;-83
2021/05/25 09:49:36;;;;;;;4.57;4.10;;;;;;;15.22;72.15;99699.33;126592;1100;103305;-83
2021/05/25 09:52:23;;;;;;;5.60;4.90;;;;;;;15.24;71.61;99706.17;126624;1101;102976;-83
2021/05/25 09:55:12;;;;;;;5.53;4.67;;;;;;;15.23;71.04;99693.98;126625;1098;103279;-83
2021/05/25 09:58:00;;;;;;;5.90;5.07;;;;;;;15.22;70.76;99696.70;126588;1101;103020;-82
2021/05/25 10:00:49;;;;;;;5.50;4.40;;;;;;;15.52;71.04;99697.48;126535;1101;103034;-83
2021/05/25 10:04:08;;;;;;;6.00;5.27;;;;;;;16.47;70.18;99696.77;126560;1093;102982;-83
2021/05/25 10:06:57;;;;;;;5.37;4.80;;;;;;;17.64;69.45;99685.36;126629;1098;103011;-82
2021/05/25 10:09:45;;;;;;;5.73;4.63;;;;;;;18.46;65.97;99692.63;126559;1101;102933;-83
2021/05/25 10:12:36;;;;;;;5.00;4.40;;;;;;;19.09;64.39;99675.60;126650;1093;101589;-83
2021/05/25 10:15:26;;;;;;;4.70;4.00;;;;;;;19.66;62.18;99672.06;126639;1100;101514;-81
2021/05/25 10:21:25;;;;;;;4.00;3.60;;;;;;;20.16;58.73;99672.48;126123;1104;103087;-83
2021/05/25 10:24:13;;;;;;;3.60;3.30;;;;;;;20.39;58.74;99674.09;126121;1102;103015;-82
2021/05/25 10:27:01;;;;;;;5.83;3.57;;;;;;;20.57;56.82;99684.19;126253;1101;103143;-82
2021/05/25 10:29:48;;;;;;;3.80;3.50;;;;;;;20.46;57.06;99680.59;126171;1101;103369;-80
2021/05/25 10:32:38;;;;;;;5.30;3.57;;;;;;;20.59;56.09;99669.84;126136;1096;103164;-82
2021/05/25 10:35:49;;;;;;;4.53;3.30;;;;;;;20.38;56.19;99671.58;126500;1101;103241;-81
2021/05/25 10:38:46;;;;;;;4.20;3.70;;;;;;;20.29;56.68;99694.38;126401;1101;103238;-81
2021/05/25 10:41:36;;;;;;;3.33;3.03;;;;;;;20.01;56.56;99685.15;126457;1101;102988;-81
2021/05/25 10:44:56;;;;;;;4.33;3.00;;;;;;;19.90;56.30;99683.34;126198;1101;103184;-82
2021/05/25 10:48:19;;;;;;;2.87;2.50;;;;;;;19.71;56.17;99679.64;125978;1104;102936;-82
2021/05/25 10:51:06;;;;;;;2.80;2.30;;;;;;;19.80;56.95;99678.92;126013;1104;103043;-82
2021/05/25 10:54:39;;;;;;;2.60;2.40;;;;;;;20.37;57.16;99681.33;126126;1104;101926;-82
2021/05/25 10:57:40;;;;;;;6.07;2.70;;;;;;;21.26;55.35;99672.16;126113;1104;103113;-82
2021/05/25 11:00:32;;;;;;;2.63;1.90;;;;;;;21.53;51.44;99668.92;126073;1104;103502;-82
2021/05/25 11:03:21;;;;;;;3.13;2.40;;;;;;;21.51;53.01;99670.03;126157;1104;103074;-82
2021/05/25 11:06:29;;;;;;;2.93;2.17;;;;;;;21.47;52.51;99671.28;126046;1104;102910;-82
2021/05/25 11:09:28;;;;;;;5.10;2.40;;;;;;;21.76;52.57;99664.29;126055;1104;103064;-82
2021/05/25 11:12:17;;;;;;;6.77;2.27;;;;;;;22.12;51.52;99667.34;126045;1104;103076;-82
2021/05/25 11:15:16;;;;;;;2.73;2.03;;;;;;;22.01;50.13;99674.41;126004;1104;103081;-82
2021/05/25 11:18:36;;;;;;;4.23;2.10;;;;;;;21.87;50.27;99665.98;126073;1104;103237;-82
2021/05/25 11:24:57;;;;;;;2.27;1.67;;;;;;;21.80;50.86;99667.50;126318;1101;103406;-82
2021/05/25 11:27:55;;;;;;;3.60;2.00;;;;;;;21.91;49.58;99659.45;126445;1098;102958;-82
2021/05/25 11:30:43;;;;;;;2.40;1.60;;;;;;;21.93;48.12;99658.33;126539;1093;103453;-81
2021/05/25 11:33:32;;;;;;;1.97;1.70;;;;;;;22.03;48.88;99650.38;126644;1098;102958;-80
2021/05/25 11:36:20;;;;;;;2.90;1.70;;;;;;;22.12;49.03;99654.91;126541;1099;102895;-82
2021/05/25 11:39:10;;;;;;;2.13;1.53;;;;;;;22.08;48.84;99653.48;126711;1098;102936;-82
2021/05/25 11:41:59;;;;;;;2.37;1.80;;;;;;;22.16;48.69;99656.30;126602;1099;102968;-82
2021/05/25 11:44:47;;;;;;;2.27;1.80;;;;;;;22.21;47.52;99645.27;126598;1100;103002;-81
2021/05/25 11:47:37;;;;;;;3.20;2.03;;;;;;;22.08;48.34;99650.82;126528;1098;103077;-81
2021/05/25 11:50:26;;;;;;;2.77;2.00;;;;;;;22.01;48.57;99654.98;126585;1098;103045;-81
2021/05/25 11:53:24;;;;;;;3.30;2.03;;;;;;;21.82;48.45;99661.08;126606;1093;101902;-80
2021/05/25 11:56:12;;;;;;;2.60;2.07;;;;;;;21.64;48.72;99660.05;126637;1099;101825;-80
2021/05/25 11:59:00;;;;;;;28.87;8.73;;;;;;;21.46;48.66;99654.52;126807;1098;102932;-81
2021/05/25 12:01:53;;;;;;;21.00;6.10;;;;;;;21.29;48.94;99655.14;126574;1093;103084;-81
2021/05/25 12:04:41;;;;;;;13.27;4.80;;;;;;;21.10;49.12;99656.67;126797;1093;103017;-81
2021/05/25 12:07:29;;;;;;;16.53;5.07;;;;;;;20.93;48.75;99657.27;126553;1093;101627;-80
2021/05/25 12:10:27;;;;;;;7.17;2.83;;;;;;;20.73;48.84;99653.64;126604;1094;103056;-81
2021/05/25 12:13:20;;;;;;;3.83;2.20;;;;;;;20.53;49.15;99666.86;126681;1098;103075;-81
2021/05/25 12:16:13;;;;;;;3.13;1.77;;;;;;;20.42;48.42;99663.28;126581;1098;103035;-80
2021/05/25 12:19:02;;;;;;;2.50;1.90;;;;;;;20.15;48.94;99668.16;126589;1098;102640;-80
2021/05/25 12:22:00;;;;;;;5.03;2.07;;;;;;;20.00;49.23;99657.00;126584;1101;102989;-81
2021/05/25 12:24:47;;;;;;;3.00;2.00;;;;;;;19.96;49.70;99670.61;126595;1098;103387;-81
2021/05/25 12:27:35;;;;;;;2.50;1.90;;;;;;;19.97;50.04;99677.58;126552;1098;102962;-82
2021/05/25 12:30:24;;;;;;;5.67;2.50;;;;;;;20.11;50.22;99679.97;126516;1098;103019;-81
2021/05/25 12:33:46;;;;;;;3.43;2.23;;;;;;;20.27;50.22;99683.03;126695;1098;103032;-81
2021/05/25 12:36:37;;;;;;;3.27;2.20;;;;;;;20.42;50.19;99678.33;126157;1104;103624;-81
2021/05/25 12:39:40;;;;;;;4.30;2.10;;;;;;;20.54;49.63;99674.69;126001;1104;103105;-81
2021/05/25 12:42:34;;;;;;;3.60;1.70;;;;;;;20.61;49.03;99675.01;126071;1104;102960;-81
2021/05/25 12:45:26;;;;;;;8.30;2.23;;;;;;;20.58;48.36;99680.56;126074;1104;103029;-81
2021/05/25 12:48:14;;;;;;;4.10;2.60;;;;;;;20.50;48.46;99687.34;125866;1104;103087;-82
2021/05/25 12:51:04;;;;;;;3.13;2.13;;;;;;;20.42;48.54;99686.27;125931;1102;102415;-81
2021/05/25 12:53:54;;;;;;;3.23;2.50;;;;;;;20.41;48.85;99679.30;126037;1104;102964;-80
2021/05/25 12:56:55;;;;;;;2.43;1.77;;;;;;;20.34;48.40;99686.88;126118;1101;103728;-80
2021/05/25 12:59:43;;;;;;;5.03;1.90;;;;;;;20.26;48.88;99684.00;126041;1101;103099;-81
2021/05/25 13:03:01;;;;;;;2.50;2.30;;;;;;;20.24;49.08;99685.94;126150;1104;102988;-80
2021/05/25 13:05:51;;;;;;;2.60;1.90;;;;;;;20.23;49.01;99681.61;126088;1104;103011;-81
2021/05/25 13:08:42;;;;;;;3.03;1.73;;;;;;;20.16;48.83;99688.38;126150;1104;103002;-81
2021/05/25 13:11:30;;;;;;;3.73;2.37;;;;;;;20.09;49.23;99688.00;126093;1100;103110;-81
2021/05/25 13:14:19;;;;;;;3.67;2.60;;;;;;;20.02;49.12;99704.52;126514;1098;102864;-81
2021/05/25 13:17:12;;;;;;;6.00;3.80;;;;;;;19.77;50.48;99698.53;126583;1101;103046;-84
2021/05/25 13:20:00;;;;;;;6.70;3.73;;;;;;;19.58;51.17;99708.88;126687;1098;102932;-80
2021/05/25 13:22:48;;;;;;;7.10;4.83;;;;;;;19.43;51.86;99708.22;126457;1101;102533;-82
2021/05/25 13:25:36;;;;;;;5.77;4.40;;;;;;;19.22;52.57;99715.16;126455;1098;103120;-81
2021/05/25 13:28:24;;;;;;;6.27;4.57;;;;;;;19.02;52.98;99711.36;126517;1099;102953;-81
2021/05/25 13:31:23;;;;;;;6.10;4.20;;;;;;;18.79;52.81;99730.75;126558;1093;102770;-80
2021/05/25 13:34:19;;;;;;;4.87;4.07;;;;;;;18.45;52.99;99727.06;126669;1098;102999;-79
2021/05/25 13:37:07;;;;;;;4.43;3.80;;;;;;;18.15;53.62;99732.78;126604;1098;101240;-82
2021/05/25 13:39:59;;;;;;;3.83;3.53;;;;;;;17.96;54.00;99734.09;126432;1100;103479;-81
2021/05/25 13:42:48;;;;;;;4.73;3.67;;;;;;;17.76;54.21;99730.19;126640;1098;103114;-80
2021/05/25 13:45:35;;;;;;;4.40;4.00;;;;;;;17.55;54.49;99731.66;126605;1100;101356;-81
2021/05/25 13:48:23;;;;;;;4.20;3.80;;;;;;;17.38;54.79;99735.45;126583;1098;103087;-80
2021/05/25 13:51:11;;;;;;;6.03;3.20;;;;;;;17.24;55.17;99727.66;126432;1101;102971;-82
2021/05/25 13:54:02;;;;;;;3.90;3.50;;;;;;;17.14;55.25;99731.84;126588;1098;103042;-81
2021/05/25 13:56:57;;;;;;;3.47;3.17;;;;;;;17.04;55.20;99742.14;126427;1100;102875;-79
2021/05/25 14:02:33;;;;;;;6.13;4.37;;;;;;;16.96;55.57;99739.19;126521;1101;103032;-80
2021/05/25 14:05:21;;;;;;;4.30;3.67;;;;;;;16.96;55.81;99749.73;126549;1101;101699;-80